createdAt,value
2017-11-03T07:27:32.822Z,52.72
2017-11-03T07:30:02.533Z,49.13
2017-11-03T07:32:32.237Z,52.03
2017-11-03T07:35:02.087Z,53.75
2017-11-03T07:37:31.127Z,49.33
2017-11-03T07:40:00.026Z,50.65
2017-11-03T07:42:28.983Z,54.10
2017-11-03T07:44:58.047Z,45.58
2017-11-03T07:47:27.023Z,55.55
2017-11-03T07:49:56.126Z,50.67
2017-11-03T07:52:25.895Z,53.40
2017-11-03T07:54:54.933Z,57.65
2017-11-03T07:57:24.743Z,53.85
2017-11-03T07:59:54.514Z,49.72
2017-11-03T08:02:23.537Z,43.90
2017-11-03T08:04:52.606Z,50.78
2017-11-03T08:07:21.877Z,50.60
2017-11-03T08:09:50.859Z,44.38
2017-11-03T08:13:15.236Z,44.45
2017-11-03T08:15:47.958Z,46.45
2017-11-03T08:18:17.030Z,46.30
2017-11-03T08:20:46.079Z,46.58
2017-11-03T08:23:18.021Z,43.50
2017-11-03T08:25:47.274Z,45.47
2017-11-03T08:28:17.973Z,45.40
2017-11-03T08:30:47.286Z,44.45
2017-11-03T08:33:16.476Z,46.25
2017-11-03T08:35:46.417Z,45.80
2017-11-03T08:38:15.394Z,45.47
2017-11-03T08:40:49.729Z,42.72
2017-11-03T08:43:19.662Z,44.75
2017-11-03T08:45:48.977Z,46.47
2017-11-03T08:48:17.990Z,42.58
2017-11-03T08:50:47.079Z,44.80
2017-11-03T08:53:16.094Z,43.03
2017-11-03T08:55:45.743Z,40.20
2017-11-03T08:58:15.211Z,41.75
2017-11-03T09:00:44.440Z,39.42
2017-11-03T09:03:13.592Z,39.60
2017-11-03T09:49:24.069Z,37.08
2017-11-03T09:51:53.495Z,38.10
2017-11-03T09:54:23.436Z,34.75
2017-11-03T09:56:53.218Z,37.67
2017-11-03T09:59:23.350Z,37.83
2017-11-03T10:01:52.387Z,36.85
2017-11-03T10:04:21.542Z,39.25
2017-11-03T10:06:50.500Z,36.97
2017-11-03T10:09:20.322Z,34.30
2017-11-03T10:11:49.453Z,33.30
2017-11-03T10:14:18.888Z,37.42
2017-11-03T10:16:48.285Z,33.10
2017-11-03T10:19:17.497Z,32.63
2017-11-03T10:21:46.791Z,32.65
2017-11-03T10:24:20.170Z,31.83
2017-11-03T10:26:49.782Z,28.67
2017-11-03T10:29:19.886Z,35.47
2017-11-03T10:31:50.002Z,31.60
2017-11-03T10:34:20.446Z,31.45
2017-11-03T10:36:56.445Z,28.80
2017-11-03T10:39:26.613Z,28.83
2017-11-03T10:41:56.099Z,31.37
2017-11-03T10:44:25.543Z,33.22
2017-11-03T10:46:54.856Z,32.28
2017-11-03T10:49:25.453Z,30.50
2017-11-03T10:52:11.797Z,33.97
2017-11-03T10:54:44.403Z,38.47
2017-11-03T10:57:17.964Z,32.47
2017-11-03T11:02:48.801Z,29.60
2017-11-03T11:05:31.474Z,34.22
2017-11-03T11:08:02.240Z,32.35
2017-11-03T11:10:33.640Z,31.60
2017-11-03T11:13:04.061Z,33.28
2017-11-03T11:15:38.080Z,31.37
2017-11-03T11:18:11.482Z,30.30
2017-11-03T11:20:44.062Z,35.50
2017-11-03T11:23:17.635Z,27.40
2017-11-03T11:25:55.286Z,30.70
2017-11-03T11:28:44.237Z,31.37
2017-11-03T11:31:17.003Z,35.63
2017-11-03T11:33:50.911Z,31.05
2017-11-03T11:36:22.646Z,31.10
2017-11-03T11:39:08.488Z,32.25
2017-11-03T11:41:43.656Z,30.10
2017-11-03T11:44:20.618Z,28.40
2017-11-03T11:47:07.064Z,29.20
2017-11-03T11:49:38.805Z,29.63
2017-11-03T11:52:09.205Z,32.70
2017-11-03T11:54:42.629Z,31.80
2017-11-03T11:57:20.767Z,30.77
2017-11-03T12:00:01.780Z,27.65
2017-11-03T12:02:40.228Z,29.30
2017-11-03T12:05:11.699Z,29.00
2017-11-03T12:07:46.637Z,26.33
2017-11-03T12:10:20.460Z,28.98
2017-11-03T12:12:53.376Z,27.13
2017-11-03T12:15:29.159Z,27.95
2017-11-03T12:18:03.038Z,27.13
2017-11-03T12:20:39.297Z,26.92
2017-11-03T12:23:17.309Z,27.00
2017-11-03T12:25:48.015Z,26.58
2017-11-03T12:28:17.162Z,29.23
2017-11-03T12:30:50.143Z,26.30
2017-11-03T12:33:19.505Z,26.65
2017-11-03T12:35:48.671Z,24.75
2017-11-03T12:38:18.043Z,24.48
2017-11-03T12:40:48.450Z,28.90
2017-11-03T12:43:18.049Z,29.42
2017-11-03T12:45:47.286Z,30.77
2017-11-03T12:48:17.554Z,31.27
2017-11-03T12:50:47.044Z,27.50
2017-11-03T12:53:16.306Z,31.00
2017-11-03T12:55:46.159Z,28.15
2017-11-03T12:58:15.278Z,29.35
2017-11-03T13:00:44.509Z,28.45
2017-11-03T13:03:13.733Z,31.10
2017-11-03T13:05:44.126Z,28.95
2017-11-03T13:08:13.321Z,29.10
2017-11-03T13:10:44.468Z,26.62
2017-11-03T13:13:13.747Z,27.35
2017-11-03T13:15:42.908Z,30.48
2017-11-03T13:18:12.432Z,26.95
2017-11-03T13:20:41.588Z,26.92
2017-11-03T13:23:10.685Z,27.73
2017-11-03T13:25:40.841Z,29.08
2017-11-03T13:28:10.160Z,24.80
2017-11-03T13:30:40.159Z,27.95
2017-11-03T13:33:09.839Z,27.17
2017-11-03T13:35:38.960Z,29.63
2017-11-03T13:38:08.200Z,27.60
2017-11-03T13:40:38.533Z,29.58
2017-11-03T13:43:07.586Z,24.30
2017-11-03T13:45:37.221Z,28.58
2017-11-03T13:48:07.820Z,26.87
2017-11-03T13:50:44.547Z,28.58
2017-11-03T13:53:13.931Z,28.25
2017-11-03T13:55:54.088Z,30.48
2017-11-03T13:58:23.959Z,30.02
2017-11-03T14:00:53.253Z,29.23
2017-11-03T14:03:31.606Z,30.92
2017-11-03T14:06:09.718Z,24.27
2017-11-03T14:08:43.280Z,26.20
2017-11-03T14:11:19.663Z,24.00
2017-11-03T14:13:53.172Z,24.12
2017-11-03T14:16:25.433Z,25.20
2017-11-03T14:18:56.736Z,26.17
2017-11-03T14:21:28.018Z,27.48
2017-11-03T14:24:03.588Z,29.45
2017-11-03T14:26:42.032Z,21.48
2017-11-03T14:29:11.531Z,22.98
2017-11-03T14:31:40.751Z,21.92
2017-11-03T14:34:09.853Z,22.20
2017-11-03T14:36:39.054Z,20.12
2017-11-03T14:39:08.634Z,20.58
2017-11-03T14:41:37.769Z,23.73
2017-11-03T14:44:06.927Z,23.67
2017-11-03T14:46:36.079Z,23.70
2017-11-03T14:49:05.392Z,24.35
2017-11-03T14:51:34.679Z,20.88
2017-11-03T14:54:03.784Z,19.73
2017-11-03T14:56:32.794Z,25.42
2017-11-03T14:59:02.010Z,23.42
2017-11-03T15:01:31.163Z,22.27
2017-11-03T15:04:00.372Z,25.55
2017-11-03T15:06:34.707Z,27.00
2017-11-03T15:09:05.531Z,25.85
2017-11-03T15:11:35.442Z,28.50
2017-11-03T15:14:04.755Z,27.00
2017-11-03T15:16:33.814Z,27.10
2017-11-03T15:19:03.340Z,24.00
2017-11-03T15:21:32.659Z,28.20
2017-11-03T15:24:01.928Z,27.20
2017-11-03T15:26:31.265Z,29.27
2017-11-03T15:29:01.466Z,33.88
2017-11-03T15:31:30.655Z,32.22
2017-11-03T15:34:00.656Z,31.80
2017-11-03T15:36:31.643Z,28.92
2017-11-03T15:39:01.535Z,27.77
2017-11-03T15:41:31.603Z,30.20
2017-11-03T15:44:03.864Z,30.48
2017-11-03T15:46:33.169Z,37.53
2017-11-03T15:49:02.431Z,34.55
2017-11-03T15:51:31.695Z,36.00
2017-11-03T15:54:00.909Z,29.45
2017-11-03T15:56:30.437Z,37.10
2017-11-03T15:58:59.723Z,37.67
2017-11-03T16:01:28.960Z,30.67
2017-11-03T16:03:57.900Z,30.30
2017-11-03T16:06:27.012Z,34.03
2017-11-03T16:08:57.609Z,35.60
2017-11-03T16:11:28.092Z,38.30
2017-11-03T16:13:59.634Z,38.88
2017-11-03T16:16:36.208Z,39.75
2017-11-03T16:19:06.357Z,36.13
2017-11-03T16:21:35.898Z,37.17
2017-11-03T16:24:06.231Z,36.08
2017-11-03T16:26:37.136Z,40.28
2017-11-03T16:29:06.465Z,40.78
2017-11-03T16:31:36.248Z,40.55
2017-11-03T16:34:06.359Z,36.10
2017-11-03T16:36:35.351Z,40.17
2017-11-03T16:39:05.448Z,44.83
2017-11-03T16:41:35.723Z,44.30
2017-11-03T16:44:04.770Z,43.20
2017-11-03T16:46:33.777Z,37.35
2017-11-03T16:49:03.102Z,39.97
2017-11-03T16:51:32.308Z,35.53
2017-11-03T16:54:02.687Z,39.50
2017-11-03T16:56:32.284Z,36.50
2017-11-03T16:59:01.730Z,34.72
2017-11-03T17:01:32.210Z,35.08
2017-11-03T17:04:03.055Z,42.08
2017-11-03T17:06:32.232Z,36.40
2017-11-03T17:09:02.115Z,36.40
2017-11-03T17:11:31.949Z,38.60
2017-11-03T17:14:02.930Z,41.30
2017-11-03T17:16:45.667Z,40.25
2017-11-03T17:19:16.188Z,35.28
2017-11-03T17:21:46.951Z,34.70
2017-11-03T17:24:17.943Z,36.67
2017-11-03T17:26:47.638Z,33.80
2017-11-03T17:29:22.811Z,43.17
2017-11-03T17:31:55.319Z,46.05
2017-11-03T17:34:25.590Z,44.42
2017-11-03T17:36:57.241Z,43.92
2017-11-03T17:39:26.504Z,51.05
2017-11-03T17:41:58.876Z,55.65
2017-11-03T17:44:32.213Z,50.97
2017-11-03T17:47:03.226Z,49.28
2017-11-03T17:49:32.821Z,43.78
2017-11-03T17:52:02.395Z,44.00
2017-11-03T17:54:33.686Z,43.85
2017-11-03T17:57:03.468Z,52.60
2017-11-03T17:59:43.180Z,49.70
2017-11-03T18:02:14.473Z,45.38
2017-11-03T18:04:44.788Z,47.13
2017-11-03T18:07:14.975Z,38.75
2017-11-03T18:09:47.342Z,44.80
2017-11-03T18:12:16.725Z,47.05
2017-11-03T18:14:47.969Z,39.08
2017-11-03T18:17:17.771Z,40.58
2017-11-03T18:19:48.159Z,41.15
2017-11-03T18:22:19.387Z,42.45
2017-11-03T18:24:49.671Z,36.78
2017-11-03T18:27:18.940Z,39.63
2017-11-03T18:29:49.139Z,45.67
2017-11-03T18:32:20.609Z,42.80
2017-11-03T18:34:50.167Z,36.65
2017-11-03T18:37:19.954Z,48.45
2017-11-03T18:39:49.586Z,35.97
2017-11-03T18:42:20.069Z,39.92
2017-11-03T18:44:50.200Z,41.25
2017-11-03T18:47:19.275Z,40.17
2017-11-03T18:49:48.517Z,38.55
2017-11-03T18:52:19.643Z,37.13
2017-11-03T18:54:49.659Z,37.55
2017-11-03T18:57:19.471Z,35.72
2017-11-03T18:59:49.310Z,29.63
2017-11-03T19:02:19.471Z,38.10
2017-11-03T19:04:48.449Z,39.22
2017-11-03T19:07:17.528Z,47.95
2017-11-03T19:09:46.708Z,33.35
2017-11-03T19:12:16.482Z,37.25
2017-11-03T19:14:45.500Z,41.10
2017-11-03T19:17:14.535Z,38.60
2017-11-03T19:19:43.460Z,36.58
2017-11-03T19:22:13.250Z,42.55
2017-11-03T19:24:42.381Z,38.58
2017-11-03T19:27:12.165Z,46.13
2017-11-03T19:29:41.221Z,43.13
2017-11-03T19:32:10.262Z,52.30
2017-11-03T19:34:43.907Z,53.17
2017-11-03T19:37:17.708Z,54.60
2017-11-03T19:39:46.674Z,51.70
2017-11-03T19:42:16.466Z,48.38
2017-11-03T19:44:45.489Z,48.55
2017-11-03T19:47:15.292Z,48.58
2017-11-03T19:49:45.124Z,42.38
2017-11-03T19:52:14.123Z,44.05
2017-11-03T19:54:43.838Z,42.85
2017-11-03T19:57:16.263Z,52.15
2017-11-03T19:59:45.213Z,45.33
2017-11-03T20:02:14.206Z,39.78
2017-11-03T20:04:43.215Z,42.42
2017-11-03T20:07:12.946Z,46.88
2017-11-03T20:09:41.896Z,47.92
2017-11-03T20:12:10.980Z,46.35
2017-11-03T20:14:40.568Z,47.20
2017-11-03T20:17:10.385Z,41.30
2017-11-03T20:19:40.372Z,39.38
2017-11-03T20:22:09.375Z,38.90
2017-11-03T20:24:39.154Z,37.67
2017-11-03T20:27:08.196Z,33.90
2017-11-03T20:29:38.074Z,36.03
2017-11-03T20:32:07.144Z,36.92
2017-11-03T20:34:36.148Z,34.25
2017-11-03T20:37:05.282Z,32.13
2017-11-03T20:39:35.230Z,34.40
2017-11-03T20:42:04.389Z,31.85
2017-11-03T20:44:33.677Z,36.70
2017-11-03T20:47:02.975Z,35.47
2017-11-03T20:49:32.070Z,34.05
2017-11-03T20:52:01.083Z,34.33
2017-11-03T20:54:30.117Z,33.05
2017-11-03T20:56:59.209Z,30.98
2017-11-03T20:59:28.489Z,31.75
2017-11-03T21:01:57.545Z,35.75
2017-11-03T21:04:26.529Z,34.65
2017-11-03T21:06:55.754Z,34.10
2017-11-03T21:09:24.739Z,31.23
2017-11-03T21:11:56.752Z,32.15
2017-11-03T21:14:25.741Z,31.33
2017-11-03T21:16:55.439Z,28.40
2017-11-03T21:19:24.492Z,34.92
2017-11-03T21:21:53.383Z,32.40
2017-11-03T21:24:22.473Z,38.13
2017-11-03T21:26:51.476Z,33.08
2017-11-03T21:29:21.527Z,31.17
2017-11-03T21:31:51.255Z,32.33
2017-11-03T21:34:21.063Z,33.30
2017-11-03T21:36:50.059Z,28.30
2017-11-03T21:39:19.756Z,34.00
2017-11-03T21:44:41.794Z,29.15
2017-11-03T21:47:11.678Z,31.90
2017-11-03T21:49:46.659Z,28.80
2017-11-03T21:52:19.895Z,28.80
2017-11-03T21:54:49.016Z,31.60
2017-11-03T21:57:18.051Z,28.60
2017-11-03T21:59:47.029Z,39.92
2017-11-03T22:02:15.975Z,27.37
2017-11-03T22:04:44.935Z,32.70
2017-11-03T22:07:13.958Z,31.50
2017-11-03T22:09:42.928Z,31.87
2017-11-03T22:12:11.926Z,31.08
2017-11-03T22:58:22.152Z,29.58
2017-11-03T23:00:53.902Z,32.72
2017-11-03T23:03:22.871Z,36.17
2017-11-03T23:05:51.899Z,33.80
2017-11-03T23:08:21.332Z,31.58
2017-11-03T23:10:50.409Z,30.70
2017-11-03T23:13:19.411Z,34.75
2017-11-03T23:15:48.387Z,32.53
2017-11-03T23:18:17.317Z,32.08
2017-11-03T23:20:47.031Z,33.60
2017-11-03T23:23:20.704Z,29.30
2017-11-03T23:25:53.247Z,34.05
2017-11-03T23:28:22.318Z,37.00
2017-11-03T23:30:54.849Z,31.73
2017-11-03T23:33:23.838Z,34.08
2017-11-03T23:35:52.780Z,34.58
2017-11-03T23:38:23.792Z,30.95
2017-11-03T23:40:53.774Z,32.85
2017-11-03T23:43:22.748Z,35.00
2017-11-03T23:45:51.702Z,33.40
2017-11-03T23:48:21.476Z,28.62
2017-11-03T23:50:50.530Z,34.40
2017-11-03T23:53:19.555Z,32.15
2017-11-03T23:55:49.364Z,32.85
2017-11-03T23:58:18.330Z,35.83
